sensor_id;sensor_type;location;lat;lon;timestamp;P1;durP1;ratioP1;P2;durP2;ratioP2
20729;SDS011;10526;50.850;12.928;2022-11-24T00:02:44;32.38;;;14.30;;
20729;SDS011;10526;50.850;12.928;2022-11-24T00:07:06;30.73;;;13.48;;
20729;SDS011;10526;50.850;12.928;2022-11-24T00:11:31;33.13;;;16.77;;
20729;SDS011;10526;50.850;12.928;2022-11-24T00:16:02;37.10;;;18.55;;
20729;SDS011;10526;50.850;12.928;2022-11-24T00:20:52;36.92;;;17.60;;
20729;SDS011;10526;50.850;12.928;2022-11-24T00:25:14;32.95;;;15.88;;
20729;SDS011;10526;50.850;12.928;2022-11-24T00:29:35;28.10;;;13.57;;
20729;SDS011;10526;50.850;12.928;2022-11-24T00:34:02;22.48;;;10.57;;
20729;SDS011;10526;50.850;12.928;2022-11-24T00:38:32;26.23;;;12.27;;
20729;SDS011;10526;50.850;12.928;2022-11-24T00:42:54;28.27;;;13.43;;
20729;SDS011;10526;50.850;12.928;2022-11-24T00:47:16;31.17;;;14.52;;
20729;SDS011;10526;50.850;12.928;2022-11-24T00:51:38;29.88;;;14.05;;
20729;SDS011;10526;50.850;12.928;2022-11-24T00:56:00;25.58;;;11.50;;
20729;SDS011;10526;50.850;12.928;2022-11-24T01:00:25;23.85;;;10.02;;
20729;SDS011;10526;50.850;12.928;2022-11-24T01:04:50;20.73;;;9.70;;
20729;SDS011;10526;50.850;12.928;2022-11-24T01:09:12;22.42;;;8.10;;
20729;SDS011;10526;50.850;12.928;2022-11-24T01:13:37;22.65;;;9.40;;
20729;SDS011;10526;50.850;12.928;2022-11-24T01:18:00;16.75;;;8.27;;
20729;SDS011;10526;50.850;12.928;2022-11-24T01:22:22;21.75;;;8.77;;
20729;SDS011;10526;50.850;12.928;2022-11-24T01:26:46;20.90;;;8.43;;
20729;SDS011;10526;50.850;12.928;2022-11-24T01:31:08;20.70;;;8.25;;
20729;SDS011;10526;50.850;12.928;2022-11-24T01:35:30;20.17;;;9.30;;
20729;SDS011;10526;50.850;12.928;2022-11-24T01:39:52;23.98;;;10.68;;
20729;SDS011;10526;50.850;12.928;2022-11-24T01:44:19;24.60;;;10.57;;
20729;SDS011;10526;50.850;12.928;2022-11-24T01:49:34;21.80;;;9.55;;
20729;SDS011;10526;50.850;12.928;2022-11-24T01:53:40;24.25;;;10.15;;
20729;SDS011;10526;50.850;12.928;2022-11-24T01:58:18;21.20;;;9.68;;
20729;SDS011;10526;50.850;12.928;2022-11-24T02:02:44;19.35;;;7.85;;
20729;SDS011;10526;50.850;12.928;2022-11-24T02:07:06;20.90;;;8.65;;
20729;SDS011;10526;50.850;12.928;2022-11-24T02:11:32;21.45;;;10.05;;
20729;SDS011;10526;50.850;12.928;2022-11-24T02:15:58;25.98;;;11.07;;
20729;SDS011;10526;50.850;12.928;2022-11-24T02:20:21;25.40;;;10.32;;
20729;SDS011;10526;50.850;12.928;2022-11-24T02:24:51;21.20;;;10.75;;
20729;SDS011;10526;50.850;12.928;2022-11-24T02:29:27;25.60;;;10.10;;
20729;SDS011;10526;50.850;12.928;2022-11-24T02:33:49;24.40;;;10.57;;
20729;SDS011;10526;50.850;12.928;2022-11-24T02:38:11;26.25;;;11.30;;
20729;SDS011;10526;50.850;12.928;2022-11-24T02:42:35;26.40;;;12.00;;
20729;SDS011;10526;50.850;12.928;2022-11-24T02:47:07;25.98;;;11.27;;
20729;SDS011;10526;50.850;12.928;2022-11-24T02:51:31;32.30;;;15.25;;
20729;SDS011;10526;50.850;12.928;2022-11-24T02:55:54;28.83;;;14.55;;
20729;SDS011;10526;50.850;12.928;2022-11-24T03:00:16;28.27;;;13.55;;
20729;SDS011;10526;50.850;12.928;2022-11-24T03:04:39;28.30;;;15.38;;
20729;SDS011;10526;50.850;12.928;2022-11-24T03:09:01;33.03;;;14.60;;
20729;SDS011;10526;50.850;12.928;2022-11-24T03:13:23;31.80;;;14.88;;
20729;SDS011;10526;50.850;12.928;2022-11-24T03:17:44;27.88;;;13.98;;
20729;SDS011;10526;50.850;12.928;2022-11-24T03:22:06;26.13;;;12.13;;
20729;SDS011;10526;50.850;12.928;2022-11-24T03:26:29;24.85;;;11.85;;
20729;SDS011;10526;50.850;12.928;2022-11-24T03:30:51;24.80;;;12.30;;
20729;SDS011;10526;50.850;12.928;2022-11-24T03:35:13;28.25;;;13.90;;
20729;SDS011;10526;50.850;12.928;2022-11-24T03:39:35;32.67;;;15.27;;
20729;SDS011;10526;50.850;12.928;2022-11-24T03:43:57;31.75;;;14.23;;
20729;SDS011;10526;50.850;12.928;2022-11-24T03:48:19;25.92;;;12.55;;
20729;SDS011;10526;50.850;12.928;2022-11-24T03:52:41;29.13;;;13.80;;
20729;SDS011;10526;50.850;12.928;2022-11-24T03:57:03;29.85;;;15.07;;
20729;SDS011;10526;50.850;12.928;2022-11-24T04:01:25;27.73;;;14.70;;
20729;SDS011;10526;50.850;12.928;2022-11-24T04:05:48;28.67;;;14.32;;
20729;SDS011;10526;50.850;12.928;2022-11-24T04:10:10;33.92;;;17.10;;
20729;SDS011;10526;50.850;12.928;2022-11-24T04:14:32;34.90;;;16.60;;
20729;SDS011;10526;50.850;12.928;2022-11-24T04:18:55;36.15;;;18.05;;
20729;SDS011;10526;50.850;12.928;2022-11-24T04:23:17;33.78;;;17.08;;
20729;SDS011;10526;50.850;12.928;2022-11-24T04:27:39;31.20;;;16.83;;
20729;SDS011;10526;50.850;12.928;2022-11-24T04:32:01;33.22;;;15.77;;
20729;SDS011;10526;50.850;12.928;2022-11-24T04:36:23;31.13;;;16.00;;
20729;SDS011;10526;50.850;12.928;2022-11-24T04:40:45;33.30;;;15.73;;
20729;SDS011;10526;50.850;12.928;2022-11-24T04:45:07;34.45;;;15.23;;
20729;SDS011;10526;50.850;12.928;2022-11-24T04:49:31;29.65;;;14.68;;
20729;SDS011;10526;50.850;12.928;2022-11-24T04:53:52;26.85;;;14.20;;
20729;SDS011;10526;50.850;12.928;2022-11-24T04:58:14;28.83;;;14.05;;
20729;SDS011;10526;50.850;12.928;2022-11-24T05:02:36;28.98;;;14.75;;
20729;SDS011;10526;50.850;12.928;2022-11-24T05:06:59;31.35;;;13.75;;
20729;SDS011;10526;50.850;12.928;2022-11-24T05:11:20;28.58;;;14.75;;
20729;SDS011;10526;50.850;12.928;2022-11-24T05:15:42;29.45;;;14.48;;
20729;SDS011;10526;50.850;12.928;2022-11-24T05:20:05;25.85;;;12.80;;
20729;SDS011;10526;50.850;12.928;2022-11-24T05:24:28;29.02;;;14.38;;
20729;SDS011;10526;50.850;12.928;2022-11-24T05:28:50;24.35;;;13.32;;
20729;SDS011;10526;50.850;12.928;2022-11-24T05:33:13;28.20;;;13.57;;
20729;SDS011;10526;50.850;12.928;2022-11-24T05:37:39;24.48;;;13.23;;
20729;SDS011;10526;50.850;12.928;2022-11-24T05:42:01;26.25;;;12.25;;
20729;SDS011;10526;50.850;12.928;2022-11-24T05:46:45;24.20;;;12.93;;
20729;SDS011;10526;50.850;12.928;2022-11-24T05:51:07;23.92;;;12.55;;
20729;SDS011;10526;50.850;12.928;2022-11-24T05:55:29;25.13;;;12.32;;
20729;SDS011;10526;50.850;12.928;2022-11-24T05:59:52;22.67;;;12.02;;
20729;SDS011;10526;50.850;12.928;2022-11-24T06:04:14;24.98;;;12.98;;
20729;SDS011;10526;50.850;12.928;2022-11-24T06:08:36;27.85;;;13.27;;
20729;SDS011;10526;50.850;12.928;2022-11-24T06:12:58;27.75;;;12.38;;
20729;SDS011;10526;50.850;12.928;2022-11-24T06:17:24;25.08;;;12.38;;
20729;SDS011;10526;50.850;12.928;2022-11-24T06:21:46;25.10;;;13.68;;
20729;SDS011;10526;50.850;12.928;2022-11-24T06:26:08;26.83;;;12.68;;
20729;SDS011;10526;50.850;12.928;2022-11-24T06:30:30;27.73;;;14.30;;
20729;SDS011;10526;50.850;12.928;2022-11-24T06:34:52;27.35;;;12.40;;
20729;SDS011;10526;50.850;12.928;2022-11-24T06:39:14;26.52;;;12.82;;
20729;SDS011;10526;50.850;12.928;2022-11-24T06:43:36;26.23;;;13.05;;
20729;SDS011;10526;50.850;12.928;2022-11-24T06:47:58;31.15;;;14.43;;
20729;SDS011;10526;50.850;12.928;2022-11-24T06:52:20;30.60;;;13.50;;
20729;SDS011;10526;50.850;12.928;2022-11-24T06:56:42;28.90;;;12.65;;
20729;SDS011;10526;50.850;12.928;2022-11-24T07:01:05;26.63;;;12.60;;
20729;SDS011;10526;50.850;12.928;2022-11-24T07:05:27;25.58;;;13.32;;
20729;SDS011;10526;50.850;12.928;2022-11-24T07:09:49;23.50;;;11.98;;
20729;SDS011;10526;50.850;12.928;2022-11-24T07:14:11;25.95;;;13.65;;
20729;SDS011;10526;50.850;12.928;2022-11-24T07:18:33;28.95;;;13.77;;
20729;SDS011;10526;50.850;12.928;2022-11-24T07:22:55;25.63;;;12.85;;
20729;SDS011;10526;50.850;12.928;2022-11-24T07:27:18;25.40;;;12.80;;
20729;SDS011;10526;50.850;12.928;2022-11-24T07:31:40;27.23;;;12.23;;
20729;SDS011;10526;50.850;12.928;2022-11-24T07:36:03;27.98;;;13.73;;
20729;SDS011;10526;50.850;12.928;2022-11-24T07:40:26;28.20;;;13.88;;
20729;SDS011;10526;50.850;12.928;2022-11-24T07:44:48;29.48;;;14.15;;
20729;SDS011;10526;50.850;12.928;2022-11-24T07:49:10;26.40;;;13.77;;
20729;SDS011;10526;50.850;12.928;2022-11-24T07:53:32;35.72;;;14.35;;
20729;SDS011;10526;50.850;12.928;2022-11-24T07:57:59;38.15;;;13.93;;
20729;SDS011;10526;50.850;12.928;2022-11-24T08:02:21;30.75;;;13.40;;
20729;SDS011;10526;50.850;12.928;2022-11-24T08:06:43;27.48;;;11.73;;
20729;SDS011;10526;50.850;12.928;2022-11-24T08:11:08;25.80;;;12.05;;
20729;SDS011;10526;50.850;12.928;2022-11-24T08:15:33;33.85;;;13.07;;
20729;SDS011;10526;50.850;12.928;2022-11-24T08:19:55;27.98;;;12.93;;
20729;SDS011;10526;50.850;12.928;2022-11-24T08:24:17;28.38;;;12.88;;
20729;SDS011;10526;50.850;12.928;2022-11-24T08:28:39;27.92;;;12.90;;
20729;SDS011;10526;50.850;12.928;2022-11-24T08:33:02;28.27;;;11.75;;
20729;SDS011;10526;50.850;12.928;2022-11-24T08:37:24;28.13;;;12.13;;
20729;SDS011;10526;50.850;12.928;2022-11-24T08:41:47;24.70;;;12.23;;
20729;SDS011;10526;50.850;12.928;2022-11-24T08:46:10;32.05;;;12.57;;
20729;SDS011;10526;50.850;12.928;2022-11-24T08:50:37;26.55;;;12.93;;
20729;SDS011;10526;50.850;12.928;2022-11-24T08:54:59;22.85;;;12.10;;
20729;SDS011;10526;50.850;12.928;2022-11-24T08:59:20;22.13;;;10.70;;
20729;SDS011;10526;50.850;12.928;2022-11-24T09:03:43;23.60;;;10.85;;
20729;SDS011;10526;50.850;12.928;2022-11-24T09:08:11;28.45;;;10.75;;
20729;SDS011;10526;50.850;12.928;2022-11-24T09:12:33;27.02;;;9.40;;
20729;SDS011;10526;50.850;12.928;2022-11-24T09:16:55;21.55;;;8.93;;
20729;SDS011;10526;50.850;12.928;2022-11-24T09:21:18;23.33;;;9.38;;
20729;SDS011;10526;50.850;12.928;2022-11-24T09:25:41;26.60;;;8.68;;
20729;SDS011;10526;50.850;12.928;2022-11-24T09:30:03;20.70;;;8.93;;
20729;SDS011;10526;50.850;12.928;2022-11-24T09:34:26;20.13;;;8.07;;
20729;SDS011;10526;50.850;12.928;2022-11-24T09:38:48;20.25;;;7.43;;
20729;SDS011;10526;50.850;12.928;2022-11-24T09:43:34;18.42;;;6.80;;
20729;SDS011;10526;50.850;12.928;2022-11-24T09:48:21;18.17;;;6.80;;
20729;SDS011;10526;50.850;12.928;2022-11-24T09:58:29;12.18;;;4.97;;
20729;SDS011;10526;50.850;12.928;2022-11-24T10:02:45;20.85;;;6.47;;
20729;SDS011;10526;50.850;12.928;2022-11-24T10:16:22;16.48;;;5.55;;
20729;SDS011;10526;50.850;12.928;2022-11-24T10:25:50;16.55;;;6.13;;
20729;SDS011;10526;50.850;12.928;2022-11-24T10:30:20;23.45;;;6.78;;
20729;SDS011;10526;50.850;12.928;2022-11-24T10:34:44;16.65;;;5.65;;
20729;SDS011;10526;50.850;12.928;2022-11-24T10:39:14;19.48;;;6.32;;
20729;SDS011;10526;50.850;12.928;2022-11-24T10:43:59;19.33;;;6.38;;
20729;SDS011;10526;50.850;12.928;2022-11-24T10:48:23;14.95;;;5.20;;
20729;SDS011;10526;50.850;12.928;2022-11-24T10:57:36;25.67;;;6.45;;
20729;SDS011;10526;50.850;12.928;2022-11-24T11:02:00;16.50;;;5.55;;
20729;SDS011;10526;50.850;12.928;2022-11-24T11:06:24;21.63;;;5.63;;
20729;SDS011;10526;50.850;12.928;2022-11-24T11:10:50;20.05;;;5.03;;
20729;SDS011;10526;50.850;12.928;2022-11-24T11:15:41;15.52;;;4.40;;
20729;SDS011;10526;50.850;12.928;2022-11-24T11:20:24;19.65;;;4.88;;
20729;SDS011;10526;50.850;12.928;2022-11-24T11:29:23;17.85;;;4.93;;
20729;SDS011;10526;50.850;12.928;2022-11-24T11:38:42;14.48;;;4.28;;
20729;SDS011;10526;50.850;12.928;2022-11-24T11:43:08;16.92;;;5.05;;
20729;SDS011;10526;50.850;12.928;2022-11-24T11:47:56;12.57;;;3.90;;
20729;SDS011;10526;50.850;12.928;2022-11-24T11:57:24;19.08;;;4.72;;
20729;SDS011;10526;50.850;12.928;2022-11-24T12:21:25;20.67;;;5.13;;
20729;SDS011;10526;50.850;12.928;2022-11-24T12:31:03;23.10;;;4.85;;
20729;SDS011;10526;50.850;12.928;2022-11-24T12:35:45;21.98;;;4.65;;
20729;SDS011;10526;50.850;12.928;2022-11-24T12:40:22;16.63;;;3.58;;
20729;SDS011;10526;50.850;12.928;2022-11-24T12:49:32;15.93;;;3.17;;
20729;SDS011;10526;50.850;12.928;2022-11-24T12:54:17;18.40;;;4.57;;
20729;SDS011;10526;50.850;12.928;2022-11-24T13:08:40;16.60;;;3.83;;
20729;SDS011;10526;50.850;12.928;2022-11-24T13:13:06;20.23;;;4.00;;
20729;SDS011;10526;50.850;12.928;2022-11-24T13:17:31;14.60;;;4.35;;
20729;SDS011;10526;50.850;12.928;2022-11-24T13:22:24;20.30;;;4.75;;
20729;SDS011;10526;50.850;12.928;2022-11-24T13:31:09;12.70;;;3.65;;
20729;SDS011;10526;50.850;12.928;2022-11-24T13:49:12;16.23;;;3.92;;
20729;SDS011;10526;50.850;12.928;2022-11-24T13:53:35;10.95;;;4.00;;
20729;SDS011;10526;50.850;12.928;2022-11-24T14:02:31;15.95;;;4.45;;
20729;SDS011;10526;50.850;12.928;2022-11-24T14:06:59;23.13;;;5.25;;
20729;SDS011;10526;50.850;12.928;2022-11-24T14:11:29;20.30;;;5.03;;
20729;SDS011;10526;50.850;12.928;2022-11-24T14:16:04;22.83;;;6.80;;
20729;SDS011;10526;50.850;12.928;2022-11-24T14:20:29;22.30;;;3.97;;
20729;SDS011;10526;50.850;12.928;2022-11-24T14:24:52;19.88;;;4.43;;
20729;SDS011;10526;50.850;12.928;2022-11-24T14:29:20;14.35;;;3.15;;
20729;SDS011;10526;50.850;12.928;2022-11-24T14:33:44;16.95;;;3.65;;
20729;SDS011;10526;50.850;12.928;2022-11-24T14:38:07;23.67;;;3.97;;
20729;SDS011;10526;50.850;12.928;2022-11-24T14:42:32;21.50;;;4.97;;
20729;SDS011;10526;50.850;12.928;2022-11-24T14:47:04;17.10;;;3.80;;
20729;SDS011;10526;50.850;12.928;2022-11-24T14:51:34;19.08;;;3.97;;
20729;SDS011;10526;50.850;12.928;2022-11-24T15:01:08;24.25;;;4.70;;
20729;SDS011;10526;50.850;12.928;2022-11-24T15:10:34;27.08;;;6.10;;
20729;SDS011;10526;50.850;12.928;2022-11-24T15:15:04;23.30;;;5.53;;
20729;SDS011;10526;50.850;12.928;2022-11-24T15:20:16;26.35;;;6.45;;
20729;SDS011;10526;50.850;12.928;2022-11-24T15:25:19;23.58;;;6.60;;
20729;SDS011;10526;50.850;12.928;2022-11-24T15:29:45;24.95;;;7.00;;
20729;SDS011;10526;50.850;12.928;2022-11-24T15:34:08;30.83;;;7.70;;
20729;SDS011;10526;50.850;12.928;2022-11-24T15:38:34;22.83;;;7.05;;
20729;SDS011;10526;50.850;12.928;2022-11-24T15:43:01;30.55;;;8.05;;
20729;SDS011;10526;50.850;12.928;2022-11-24T15:47:26;27.88;;;7.80;;
20729;SDS011;10526;50.850;12.928;2022-11-24T15:51:48;25.08;;;8.15;;
20729;SDS011;10526;50.850;12.928;2022-11-24T15:56:11;35.72;;;10.25;;
20729;SDS011;10526;50.850;12.928;2022-11-24T16:00:42;43.03;;;18.88;;
20729;SDS011;10526;50.850;12.928;2022-11-24T16:05:05;35.80;;;11.57;;
20729;SDS011;10526;50.850;12.928;2022-11-24T16:09:28;35.80;;;13.00;;
20729;SDS011;10526;50.850;12.928;2022-11-24T16:13:50;34.25;;;9.57;;
20729;SDS011;10526;50.850;12.928;2022-11-24T16:18:14;38.92;;;9.70;;
20729;SDS011;10526;50.850;12.928;2022-11-24T16:22:36;29.88;;;12.15;;
20729;SDS011;10526;50.850;12.928;2022-11-24T16:26:58;40.22;;;12.93;;
20729;SDS011;10526;50.850;12.928;2022-11-24T16:31:20;30.45;;;11.15;;
20729;SDS011;10526;50.850;12.928;2022-11-24T16:35:44;29.20;;;11.50;;
20729;SDS011;10526;50.850;12.928;2022-11-24T16:40:08;32.80;;;10.80;;
20729;SDS011;10526;50.850;12.928;2022-11-24T16:44:30;35.25;;;10.82;;
20729;SDS011;10526;50.850;12.928;2022-11-24T16:48:56;32.03;;;11.45;;
20729;SDS011;10526;50.850;12.928;2022-11-24T16:53:23;29.85;;;11.10;;
20729;SDS011;10526;50.850;12.928;2022-11-24T16:57:46;39.30;;;11.20;;
20729;SDS011;10526;50.850;12.928;2022-11-24T17:02:09;33.22;;;12.57;;
20729;SDS011;10526;50.850;12.928;2022-11-24T17:06:33;34.10;;;13.88;;
20729;SDS011;10526;50.850;12.928;2022-11-24T17:10:56;35.50;;;13.68;;
20729;SDS011;10526;50.850;12.928;2022-11-24T17:15:18;34.80;;;13.75;;
20729;SDS011;10526;50.850;12.928;2022-11-24T17:20:00;34.30;;;15.27;;
20729;SDS011;10526;50.850;12.928;2022-11-24T17:24:22;37.20;;;14.63;;
20729;SDS011;10526;50.850;12.928;2022-11-24T17:28:44;31.63;;;14.95;;
20729;SDS011;10526;50.850;12.928;2022-11-24T17:33:06;36.45;;;13.57;;
20729;SDS011;10526;50.850;12.928;2022-11-24T17:37:28;36.03;;;14.68;;
20729;SDS011;10526;50.850;12.928;2022-11-24T17:41:52;32.30;;;14.25;;
20729;SDS011;10526;50.850;12.928;2022-11-24T17:46:15;40.13;;;16.45;;
20729;SDS011;10526;50.850;12.928;2022-11-24T17:50:37;40.78;;;14.27;;
20729;SDS011;10526;50.850;12.928;2022-11-24T17:54:59;37.10;;;14.55;;
20729;SDS011;10526;50.850;12.928;2022-11-24T17:59:22;39.97;;;14.85;;
20729;SDS011;10526;50.850;12.928;2022-11-24T18:03:44;35.17;;;13.48;;
20729;SDS011;10526;50.850;12.928;2022-11-24T18:08:13;31.42;;;13.75;;
20729;SDS011;10526;50.850;12.928;2022-11-24T18:12:35;35.15;;;15.90;;
20729;SDS011;10526;50.850;12.928;2022-11-24T18:17:01;37.40;;;14.35;;
20729;SDS011;10526;50.850;12.928;2022-11-24T18:21:24;33.85;;;13.50;;
20729;SDS011;10526;50.850;12.928;2022-11-24T18:30:14;29.65;;;11.40;;
20729;SDS011;10526;50.850;12.928;2022-11-24T18:34:36;29.73;;;11.57;;
20729;SDS011;10526;50.850;12.928;2022-11-24T18:39:01;31.80;;;12.07;;
20729;SDS011;10526;50.850;12.928;2022-11-24T18:43:26;32.60;;;12.10;;
20729;SDS011;10526;50.850;12.928;2022-11-24T18:47:49;35.13;;;13.48;;
20729;SDS011;10526;50.850;12.928;2022-11-24T18:52:11;40.72;;;15.77;;
20729;SDS011;10526;50.850;12.928;2022-11-24T18:56:33;32.45;;;14.15;;
20729;SDS011;10526;50.850;12.928;2022-11-24T19:01:14;34.28;;;12.88;;
20729;SDS011;10526;50.850;12.928;2022-11-24T19:05:40;34.00;;;14.85;;
20729;SDS011;10526;50.850;12.928;2022-11-24T19:10:02;30.30;;;12.73;;
20729;SDS011;10526;50.850;12.928;2022-11-24T19:14:25;29.80;;;13.77;;
20729;SDS011;10526;50.850;12.928;2022-11-24T19:18:47;31.08;;;14.60;;
20729;SDS011;10526;50.850;12.928;2022-11-24T19:23:14;30.40;;;13.23;;
20729;SDS011;10526;50.850;12.928;2022-11-24T19:27:39;30.45;;;12.45;;
20729;SDS011;10526;50.850;12.928;2022-11-24T19:32:01;27.10;;;13.07;;
20729;SDS011;10526;50.850;12.928;2022-11-24T19:36:23;26.80;;;11.73;;
20729;SDS011;10526;50.850;12.928;2022-11-24T19:40:46;27.30;;;11.35;;
20729;SDS011;10526;50.850;12.928;2022-11-24T19:45:08;26.58;;;11.90;;
20729;SDS011;10526;50.850;12.928;2022-11-24T19:49:31;26.73;;;11.60;;
20729;SDS011;10526;50.850;12.928;2022-11-24T19:53:53;31.42;;;12.88;;
20729;SDS011;10526;50.850;12.928;2022-11-24T19:58:15;28.05;;;14.23;;
20729;SDS011;10526;50.850;12.928;2022-11-24T20:02:37;25.83;;;12.80;;
20729;SDS011;10526;50.850;12.928;2022-11-24T20:06:59;28.60;;;11.88;;
20729;SDS011;10526;50.850;12.928;2022-11-24T20:11:22;29.88;;;11.48;;
20729;SDS011;10526;50.850;12.928;2022-11-24T20:15:44;24.90;;;10.38;;
20729;SDS011;10526;50.850;12.928;2022-11-24T20:20:06;22.13;;;9.73;;
20729;SDS011;10526;50.850;12.928;2022-11-24T20:24:28;30.10;;;12.40;;
20729;SDS011;10526;50.850;12.928;2022-11-24T20:28:52;25.75;;;8.93;;
20729;SDS011;10526;50.850;12.928;2022-11-24T20:33:16;19.05;;;8.45;;
20729;SDS011;10526;50.850;12.928;2022-11-24T20:37:38;26.33;;;8.95;;
20729;SDS011;10526;50.850;12.928;2022-11-24T20:42:00;20.17;;;9.02;;
20729;SDS011;10526;50.850;12.928;2022-11-24T20:46:23;21.45;;;9.60;;
20729;SDS011;10526;50.850;12.928;2022-11-24T20:50:49;24.15;;;9.68;;
20729;SDS011;10526;50.850;12.928;2022-11-24T20:55:11;19.40;;;9.63;;
20729;SDS011;10526;50.850;12.928;2022-11-24T20:59:34;25.55;;;8.55;;
20729;SDS011;10526;50.850;12.928;2022-11-24T21:03:57;23.42;;;9.50;;
20729;SDS011;10526;50.850;12.928;2022-11-24T21:08:30;19.92;;;8.10;;
20729;SDS011;10526;50.850;12.928;2022-11-24T21:13:02;22.42;;;8.13;;
20729;SDS011;10526;50.850;12.928;2022-11-24T21:17:26;19.65;;;7.45;;
20729;SDS011;10526;50.850;12.928;2022-11-24T21:21:49;16.38;;;7.65;;
20729;SDS011;10526;50.850;12.928;2022-11-24T21:26:15;22.30;;;8.60;;
20729;SDS011;10526;50.850;12.928;2022-11-24T21:31:07;21.80;;;9.65;;
20729;SDS011;10526;50.850;12.928;2022-11-24T21:35:35;18.25;;;8.32;;
20729;SDS011;10526;50.850;12.928;2022-11-24T21:39:57;24.02;;;9.35;;
20729;SDS011;10526;50.850;12.928;2022-11-24T21:44:19;19.27;;;9.18;;
20729;SDS011;10526;50.850;12.928;2022-11-24T21:48:42;23.05;;;9.52;;
20729;SDS011;10526;50.850;12.928;2022-11-24T21:53:04;22.38;;;8.82;;
20729;SDS011;10526;50.850;12.928;2022-11-24T21:57:26;24.63;;;9.25;;
20729;SDS011;10526;50.850;12.928;2022-11-24T22:01:49;20.05;;;9.50;;
20729;SDS011;10526;50.850;12.928;2022-11-24T22:06:18;21.88;;;8.32;;
20729;SDS011;10526;50.850;12.928;2022-11-24T22:10:41;16.67;;;7.43;;
20729;SDS011;10526;50.850;12.928;2022-11-24T22:15:03;18.85;;;7.43;;
20729;SDS011;10526;50.850;12.928;2022-11-24T22:19:26;28.15;;;7.53;;
20729;SDS011;10526;50.850;12.928;2022-11-24T22:23:51;16.80;;;7.13;;
20729;SDS011;10526;50.850;12.928;2022-11-24T22:28:13;22.27;;;7.93;;
20729;SDS011;10526;50.850;12.928;2022-11-24T22:32:35;18.13;;;7.55;;
20729;SDS011;10526;50.850;12.928;2022-11-24T22:36:58;17.35;;;7.18;;
20729;SDS011;10526;50.850;12.928;2022-11-24T22:41:20;17.27;;;6.90;;
20729;SDS011;10526;50.850;12.928;2022-11-24T22:45:42;17.08;;;6.68;;
20729;SDS011;10526;50.850;12.928;2022-11-24T22:50:05;18.20;;;6.95;;
20729;SDS011;10526;50.850;12.928;2022-11-24T22:54:28;16.00;;;7.22;;
20729;SDS011;10526;50.850;12.928;2022-11-24T22:58:50;23.30;;;7.72;;
20729;SDS011;10526;50.850;12.928;2022-11-24T23:03:13;22.85;;;7.72;;
20729;SDS011;10526;50.850;12.928;2022-11-24T23:07:38;20.83;;;8.27;;
20729;SDS011;10526;50.850;12.928;2022-11-24T23:12:03;24.27;;;7.53;;
20729;SDS011;10526;50.850;12.928;2022-11-24T23:16:26;19.70;;;8.05;;
20729;SDS011;10526;50.850;12.928;2022-11-24T23:20:50;14.50;;;6.85;;
20729;SDS011;10526;50.850;12.928;2022-11-24T23:25:12;17.83;;;6.57;;
20729;SDS011;10526;50.850;12.928;2022-11-24T23:29:35;17.75;;;7.68;;
20729;SDS011;10526;50.850;12.928;2022-11-24T23:33:59;21.48;;;7.65;;
20729;SDS011;10526;50.850;12.928;2022-11-24T23:38:25;17.98;;;7.43;;
20729;SDS011;10526;50.850;12.928;2022-11-24T23:42:55;19.95;;;7.90;;
20729;SDS011;10526;50.850;12.928;2022-11-24T23:47:17;16.85;;;7.40;;
20729;SDS011;10526;50.850;12.928;2022-11-24T23:51:39;16.50;;;7.55;;
20729;SDS011;10526;50.850;12.928;2022-11-24T23:56:03;17.85;;;7.25;;
